sensor_id;sensor_type;location;lat;lon;timestamp;P1;durP1;ratioP1;P2;durP2;ratioP2
75818;SDS011;64453;51.944;9.796;2023-08-01T00:00:11;1.53;;;0.80;;
75818;SDS011;64453;51.944;9.796;2023-08-01T00:02:39;2.30;;;0.70;;
75818;SDS011;64453;51.944;9.796;2023-08-01T00:05:07;0.70;;;0.70;;
75818;SDS011;64453;51.944;9.796;2023-08-01T00:07:35;1.63;;;0.90;;
75818;SDS011;64453;51.944;9.796;2023-08-01T00:10:02;0.70;;;0.70;;
75818;SDS011;64453;51.944;9.796;2023-08-01T00:12:31;0.97;;;0.73;;
75818;SDS011;64453;51.944;9.796;2023-08-01T00:14:59;1.60;;;0.63;;
75818;SDS011;64453;51.944;9.796;2023-08-01T00:17:26;2.10;;;0.70;;
75818;SDS011;64453;51.944;9.796;2023-08-01T00:19:53;0.77;;;0.77;;
75818;SDS011;64453;51.944;9.796;2023-08-01T00:22:20;0.60;;;0.60;;
75818;SDS011;64453;51.944;9.796;2023-08-01T00:24:47;1.17;;;0.60;;
75818;SDS011;64453;51.944;9.796;2023-08-01T00:27:14;0.90;;;0.70;;
75818;SDS011;64453;51.944;9.796;2023-08-01T00:29:42;0.70;;;0.70;;
75818;SDS011;64453;51.944;9.796;2023-08-01T00:32:09;0.80;;;0.80;;
75818;SDS011;64453;51.944;9.796;2023-08-01T00:34:36;0.70;;;0.70;;
75818;SDS011;64453;51.944;9.796;2023-08-01T00:37:04;0.70;;;0.57;;
75818;SDS011;64453;51.944;9.796;2023-08-01T00:39:31;0.60;;;0.60;;
75818;SDS011;64453;51.944;9.796;2023-08-01T00:42:00;0.60;;;0.60;;
75818;SDS011;64453;51.944;9.796;2023-08-01T00:44:27;0.63;;;0.63;;
75818;SDS011;64453;51.944;9.796;2023-08-01T00:46:56;0.50;;;0.50;;
75818;SDS011;64453;51.944;9.796;2023-08-01T00:49:23;0.70;;;0.70;;
75818;SDS011;64453;51.944;9.796;2023-08-01T00:51:50;0.80;;;0.80;;
75818;SDS011;64453;51.944;9.796;2023-08-01T00:54:17;0.70;;;0.70;;
75818;SDS011;64453;51.944;9.796;2023-08-01T00:56:45;0.43;;;0.43;;
75818;SDS011;64453;51.944;9.796;2023-08-01T00:59:12;1.27;;;0.60;;
75818;SDS011;64453;51.944;9.796;2023-08-01T01:01:39;0.77;;;0.77;;
75818;SDS011;64453;51.944;9.796;2023-08-01T01:04:08;0.73;;;0.73;;
75818;SDS011;64453;51.944;9.796;2023-08-01T01:06:37;0.70;;;0.47;;
75818;SDS011;64453;51.944;9.796;2023-08-01T01:09:14;0.50;;;0.50;;
75818;SDS011;64453;51.944;9.796;2023-08-01T01:11:42;0.50;;;0.50;;
75818;SDS011;64453;51.944;9.796;2023-08-01T01:14:09;0.53;;;0.50;;
75818;SDS011;64453;51.944;9.796;2023-08-01T01:16:37;0.87;;;0.77;;
75818;SDS011;64453;51.944;9.796;2023-08-01T01:19:06;0.77;;;0.77;;
75818;SDS011;64453;51.944;9.796;2023-08-01T01:21:37;1.10;;;0.70;;
75818;SDS011;64453;51.944;9.796;2023-08-01T01:24:06;1.07;;;0.97;;
75818;SDS011;64453;51.944;9.796;2023-08-01T01:26:36;0.70;;;0.70;;
75818;SDS011;64453;51.944;9.796;2023-08-01T01:29:04;0.83;;;0.83;;
75818;SDS011;64453;51.944;9.796;2023-08-01T01:31:33;0.73;;;0.73;;
75818;SDS011;64453;51.944;9.796;2023-08-01T01:34:01;0.73;;;0.73;;
75818;SDS011;64453;51.944;9.796;2023-08-01T01:36:29;0.90;;;0.80;;
75818;SDS011;64453;51.944;9.796;2023-08-01T01:38:57;0.73;;;0.73;;
75818;SDS011;64453;51.944;9.796;2023-08-01T01:41:24;0.63;;;0.63;;
75818;SDS011;64453;51.944;9.796;2023-08-01T01:43:51;0.60;;;0.60;;
75818;SDS011;64453;51.944;9.796;2023-08-01T01:46:18;1.07;;;0.70;;
75818;SDS011;64453;51.944;9.796;2023-08-01T01:48:45;0.93;;;0.63;;
75818;SDS011;64453;51.944;9.796;2023-08-01T01:51:12;1.00;;;0.47;;
75818;SDS011;64453;51.944;9.796;2023-08-01T01:53:40;0.87;;;0.57;;
75818;SDS011;64453;51.944;9.796;2023-08-01T01:56:09;0.40;;;0.40;;
75818;SDS011;64453;51.944;9.796;2023-08-01T01:58:36;0.40;;;0.40;;
75818;SDS011;64453;51.944;9.796;2023-08-01T02:01:03;1.43;;;0.50;;
75818;SDS011;64453;51.944;9.796;2023-08-01T02:03:30;0.30;;;0.30;;
75818;SDS011;64453;51.944;9.796;2023-08-01T02:05:57;0.40;;;0.40;;
75818;SDS011;64453;51.944;9.796;2023-08-01T02:08:24;3.70;;;0.57;;
75818;SDS011;64453;51.944;9.796;2023-08-01T02:10:52;0.70;;;0.60;;
75818;SDS011;64453;51.944;9.796;2023-08-01T02:13:21;0.40;;;0.40;;
75818;SDS011;64453;51.944;9.796;2023-08-01T02:15:48;0.63;;;0.63;;
75818;SDS011;64453;51.944;9.796;2023-08-01T02:18:15;0.70;;;0.70;;
75818;SDS011;64453;51.944;9.796;2023-08-01T02:20:43;0.60;;;0.60;;
75818;SDS011;64453;51.944;9.796;2023-08-01T02:23:10;0.57;;;0.50;;
75818;SDS011;64453;51.944;9.796;2023-08-01T02:25:38;0.70;;;0.70;;
75818;SDS011;64453;51.944;9.796;2023-08-01T02:28:05;0.50;;;0.40;;
75818;SDS011;64453;51.944;9.796;2023-08-01T02:30:34;0.50;;;0.50;;
75818;SDS011;64453;51.944;9.796;2023-08-01T02:33:02;1.57;;;0.40;;
75818;SDS011;64453;51.944;9.796;2023-08-01T02:35:29;0.60;;;0.60;;
75818;SDS011;64453;51.944;9.796;2023-08-01T02:37:56;0.40;;;0.40;;
75818;SDS011;64453;51.944;9.796;2023-08-01T02:40:23;0.50;;;0.40;;
75818;SDS011;64453;51.944;9.796;2023-08-01T02:42:53;0.50;;;0.50;;
75818;SDS011;64453;51.944;9.796;2023-08-01T02:45:20;1.10;;;0.60;;
75818;SDS011;64453;51.944;9.796;2023-08-01T02:47:48;0.77;;;0.50;;
75818;SDS011;64453;51.944;9.796;2023-08-01T02:50:15;0.73;;;0.60;;
75818;SDS011;64453;51.944;9.796;2023-08-01T02:52:43;0.50;;;0.50;;
75818;SDS011;64453;51.944;9.796;2023-08-01T02:55:10;0.53;;;0.53;;
75818;SDS011;64453;51.944;9.796;2023-08-01T02:57:37;0.60;;;0.60;;
75818;SDS011;64453;51.944;9.796;2023-08-01T03:00:04;0.90;;;0.50;;
75818;SDS011;64453;51.944;9.796;2023-08-01T03:02:36;2.20;;;0.40;;
75818;SDS011;64453;51.944;9.796;2023-08-01T03:05:07;0.30;;;0.30;;
75818;SDS011;64453;51.944;9.796;2023-08-01T03:07:35;0.50;;;0.50;;
75818;SDS011;64453;51.944;9.796;2023-08-01T03:10:02;0.40;;;0.40;;
75818;SDS011;64453;51.944;9.796;2023-08-01T03:12:31;1.23;;;0.60;;
75818;SDS011;64453;51.944;9.796;2023-08-01T03:14:59;0.40;;;0.40;;
75818;SDS011;64453;51.944;9.796;2023-08-01T03:17:26;0.53;;;0.43;;
75818;SDS011;64453;51.944;9.796;2023-08-01T03:19:53;0.60;;;0.60;;
75818;SDS011;64453;51.944;9.796;2023-08-01T03:22:21;0.40;;;0.40;;
75818;SDS011;64453;51.944;9.796;2023-08-01T03:24:50;0.70;;;0.70;;
75818;SDS011;64453;51.944;9.796;2023-08-01T03:27:18;0.50;;;0.50;;
75818;SDS011;64453;51.944;9.796;2023-08-01T03:29:45;0.53;;;0.53;;
75818;SDS011;64453;51.944;9.796;2023-08-01T03:32:12;0.77;;;0.57;;
75818;SDS011;64453;51.944;9.796;2023-08-01T03:34:39;0.77;;;0.77;;
75818;SDS011;64453;51.944;9.796;2023-08-01T03:37:06;0.87;;;0.50;;
75818;SDS011;64453;51.944;9.796;2023-08-01T03:39:34;0.70;;;0.70;;
75818;SDS011;64453;51.944;9.796;2023-08-01T03:42:02;1.00;;;0.50;;
75818;SDS011;64453;51.944;9.796;2023-08-01T03:44:29;0.63;;;0.60;;
75818;SDS011;64453;51.944;9.796;2023-08-01T03:46:58;0.83;;;0.80;;
75818;SDS011;64453;51.944;9.796;2023-08-01T03:49:26;0.90;;;0.60;;
75818;SDS011;64453;51.944;9.796;2023-08-01T03:51:53;0.40;;;0.40;;
75818;SDS011;64453;51.944;9.796;2023-08-01T03:54:23;0.50;;;0.40;;
75818;SDS011;64453;51.944;9.796;2023-08-01T03:56:51;0.63;;;0.60;;
75818;SDS011;64453;51.944;9.796;2023-08-01T03:59:18;0.67;;;0.67;;
75818;SDS011;64453;51.944;9.796;2023-08-01T04:01:45;0.70;;;0.50;;
75818;SDS011;64453;51.944;9.796;2023-08-01T04:04:13;0.80;;;0.60;;
75818;SDS011;64453;51.944;9.796;2023-08-01T04:06:39;0.50;;;0.50;;
75818;SDS011;64453;51.944;9.796;2023-08-01T04:09:07;0.50;;;0.50;;
75818;SDS011;64453;51.944;9.796;2023-08-01T04:11:32;7.10;;;0.60;;
75818;SDS011;64453;51.944;9.796;2023-08-01T04:14:01;1.27;;;0.40;;
75818;SDS011;64453;51.944;9.796;2023-08-01T04:16:28;0.40;;;0.40;;
75818;SDS011;64453;51.944;9.796;2023-08-01T04:18:55;1.00;;;0.37;;
75818;SDS011;64453;51.944;9.796;2023-08-01T04:21:22;0.97;;;0.40;;
75818;SDS011;64453;51.944;9.796;2023-08-01T04:23:49;0.77;;;0.50;;
75818;SDS011;64453;51.944;9.796;2023-08-01T04:26:16;1.40;;;0.30;;
75818;SDS011;64453;51.944;9.796;2023-08-01T04:28:45;0.70;;;0.50;;
75818;SDS011;64453;51.944;9.796;2023-08-01T04:31:14;0.30;;;0.20;;
75818;SDS011;64453;51.944;9.796;2023-08-01T04:33:41;1.03;;;0.30;;
75818;SDS011;64453;51.944;9.796;2023-08-01T04:36:08;0.30;;;0.20;;
75818;SDS011;64453;51.944;9.796;2023-08-01T04:38:35;0.30;;;0.30;;
75818;SDS011;64453;51.944;9.796;2023-08-01T04:41:03;3.70;;;0.40;;
75818;SDS011;64453;51.944;9.796;2023-08-01T04:43:30;0.30;;;0.20;;
75818;SDS011;64453;51.944;9.796;2023-08-01T04:45:57;0.63;;;0.30;;
75818;SDS011;64453;51.944;9.796;2023-08-01T04:48:25;0.30;;;0.27;;
75818;SDS011;64453;51.944;9.796;2023-08-01T04:50:52;0.80;;;0.27;;
75818;SDS011;64453;51.944;9.796;2023-08-01T04:53:19;0.30;;;0.20;;
75818;SDS011;64453;51.944;9.796;2023-08-01T04:55:46;1.23;;;0.20;;
75818;SDS011;64453;51.944;9.796;2023-08-01T04:58:13;0.50;;;0.20;;
75818;SDS011;64453;51.944;9.796;2023-08-01T05:00:41;0.20;;;0.20;;
75818;SDS011;64453;51.944;9.796;2023-08-01T05:03:08;0.30;;;0.20;;
75818;SDS011;64453;51.944;9.796;2023-08-01T05:05:37;0.30;;;0.20;;
75818;SDS011;64453;51.944;9.796;2023-08-01T05:08:04;0.30;;;0.20;;
75818;SDS011;64453;51.944;9.796;2023-08-01T05:10:31;0.57;;;0.40;;
75818;SDS011;64453;51.944;9.796;2023-08-01T05:12:59;2.30;;;0.20;;
75818;SDS011;64453;51.944;9.796;2023-08-01T05:15:27;0.60;;;0.30;;
75818;SDS011;64453;51.944;9.796;2023-08-01T05:17:54;0.30;;;0.30;;
75818;SDS011;64453;51.944;9.796;2023-08-01T05:20:23;0.30;;;0.30;;
75818;SDS011;64453;51.944;9.796;2023-08-01T05:22:57;0.33;;;0.30;;
75818;SDS011;64453;51.944;9.796;2023-08-01T05:25:25;0.30;;;0.20;;
75818;SDS011;64453;51.944;9.796;2023-08-01T05:27:52;4.73;;;0.30;;
75818;SDS011;64453;51.944;9.796;2023-08-01T05:30:19;0.30;;;0.30;;
75818;SDS011;64453;51.944;9.796;2023-08-01T05:32:46;0.40;;;0.33;;
75818;SDS011;64453;51.944;9.796;2023-08-01T05:35:13;0.30;;;0.27;;
75818;SDS011;64453;51.944;9.796;2023-08-01T05:37:40;0.30;;;0.20;;
75818;SDS011;64453;51.944;9.796;2023-08-01T05:40:10;0.30;;;0.20;;
75818;SDS011;64453;51.944;9.796;2023-08-01T05:42:38;0.30;;;0.20;;
75818;SDS011;64453;51.944;9.796;2023-08-01T05:45:05;0.30;;;0.27;;
75818;SDS011;64453;51.944;9.796;2023-08-01T05:47:34;0.77;;;0.30;;
75818;SDS011;64453;51.944;9.796;2023-08-01T05:50:01;0.37;;;0.37;;
75818;SDS011;64453;51.944;9.796;2023-08-01T05:52:29;0.50;;;0.40;;
75818;SDS011;64453;51.944;9.796;2023-08-01T05:54:57;0.57;;;0.30;;
75818;SDS011;64453;51.944;9.796;2023-08-01T05:57:25;0.57;;;0.30;;
75818;SDS011;64453;51.944;9.796;2023-08-01T05:59:52;0.40;;;0.40;;
75818;SDS011;64453;51.944;9.796;2023-08-01T06:02:19;0.47;;;0.20;;
75818;SDS011;64453;51.944;9.796;2023-08-01T06:04:46;0.30;;;0.30;;
75818;SDS011;64453;51.944;9.796;2023-08-01T06:07:13;0.30;;;0.23;;
75818;SDS011;64453;51.944;9.796;2023-08-01T06:09:40;0.30;;;0.30;;
75818;SDS011;64453;51.944;9.796;2023-08-01T06:12:08;1.43;;;0.30;;
75818;SDS011;64453;51.944;9.796;2023-08-01T06:14:36;0.30;;;0.30;;
75818;SDS011;64453;51.944;9.796;2023-08-01T06:17:04;0.30;;;0.27;;
75818;SDS011;64453;51.944;9.796;2023-08-01T06:19:31;0.50;;;0.50;;
75818;SDS011;64453;51.944;9.796;2023-08-01T06:21:59;0.40;;;0.40;;
75818;SDS011;64453;51.944;9.796;2023-08-01T06:24:26;0.33;;;0.30;;
75818;SDS011;64453;51.944;9.796;2023-08-01T06:26:53;0.60;;;0.40;;
75818;SDS011;64453;51.944;9.796;2023-08-01T06:29:21;0.73;;;0.73;;
75818;SDS011;64453;51.944;9.796;2023-08-01T06:31:51;0.60;;;0.60;;
75818;SDS011;64453;51.944;9.796;2023-08-01T06:34:18;0.80;;;0.80;;
75818;SDS011;64453;51.944;9.796;2023-08-01T06:36:45;0.70;;;0.70;;
75818;SDS011;64453;51.944;9.796;2023-08-01T06:39:11;2.80;;;0.90;;
75818;SDS011;64453;51.944;9.796;2023-08-01T06:41:38;1.13;;;0.80;;
75818;SDS011;64453;51.944;9.796;2023-08-01T06:44:05;0.53;;;0.53;;
75818;SDS011;64453;51.944;9.796;2023-08-01T06:46:33;0.70;;;0.70;;
75818;SDS011;64453;51.944;9.796;2023-08-01T06:49:01;0.53;;;0.50;;
75818;SDS011;64453;51.944;9.796;2023-08-01T06:51:29;0.80;;;0.80;;
75818;SDS011;64453;51.944;9.796;2023-08-01T06:53:55;2.73;;;0.60;;
75818;SDS011;64453;51.944;9.796;2023-08-01T06:56:23;1.27;;;0.50;;
75818;SDS011;64453;51.944;9.796;2023-08-01T06:58:50;2.20;;;1.57;;
75818;SDS011;64453;51.944;9.796;2023-08-01T07:01:17;0.90;;;0.80;;
75818;SDS011;64453;51.944;9.796;2023-08-01T07:03:44;1.00;;;1.00;;
75818;SDS011;64453;51.944;9.796;2023-08-01T07:06:13;1.43;;;1.00;;
75818;SDS011;64453;51.944;9.796;2023-08-01T07:08:40;1.43;;;1.10;;
75818;SDS011;64453;51.944;9.796;2023-08-01T07:11:07;1.40;;;1.30;;
75818;SDS011;64453;51.944;9.796;2023-08-01T07:13:34;1.97;;;1.20;;
75818;SDS011;64453;51.944;9.796;2023-08-01T07:16:01;1.50;;;1.40;;
75818;SDS011;64453;51.944;9.796;2023-08-01T07:18:28;1.90;;;1.50;;
75818;SDS011;64453;51.944;9.796;2023-08-01T07:21:01;1.43;;;1.33;;
75818;SDS011;64453;51.944;9.796;2023-08-01T07:23:30;1.97;;;1.77;;
75818;SDS011;64453;51.944;9.796;2023-08-01T07:25:59;7.50;;;1.87;;
75818;SDS011;64453;51.944;9.796;2023-08-01T07:28:26;5.50;;;1.90;;
75818;SDS011;64453;51.944;9.796;2023-08-01T07:30:57;2.07;;;1.97;;
75818;SDS011;64453;51.944;9.796;2023-08-01T07:33:25;6.63;;;2.67;;
75818;SDS011;64453;51.944;9.796;2023-08-01T07:35:52;4.87;;;1.57;;
75818;SDS011;64453;51.944;9.796;2023-08-01T07:38:20;3.90;;;1.70;;
75818;SDS011;64453;51.944;9.796;2023-08-01T07:40:48;1.97;;;1.50;;
75818;SDS011;64453;51.944;9.796;2023-08-01T07:43:15;1.60;;;1.50;;
75818;SDS011;64453;51.944;9.796;2023-08-01T07:45:44;3.43;;;1.47;;
75818;SDS011;64453;51.944;9.796;2023-08-01T07:48:11;2.90;;;1.80;;
75818;SDS011;64453;51.944;9.796;2023-08-01T07:50:38;3.27;;;1.57;;
75818;SDS011;64453;51.944;9.796;2023-08-01T07:53:05;1.20;;;1.10;;
75818;SDS011;64453;51.944;9.796;2023-08-01T07:55:33;2.87;;;1.60;;
75818;SDS011;64453;51.944;9.796;2023-08-01T07:58:02;2.37;;;1.23;;
75818;SDS011;64453;51.944;9.796;2023-08-01T08:00:29;2.97;;;2.07;;
75818;SDS011;64453;51.944;9.796;2023-08-01T08:02:57;3.43;;;1.90;;
75818;SDS011;64453;51.944;9.796;2023-08-01T08:05:24;2.20;;;2.00;;
75818;SDS011;64453;51.944;9.796;2023-08-01T08:07:51;2.10;;;1.90;;
75818;SDS011;64453;51.944;9.796;2023-08-01T08:10:19;4.30;;;2.33;;
75818;SDS011;64453;51.944;9.796;2023-08-01T08:12:46;5.40;;;2.20;;
75818;SDS011;64453;51.944;9.796;2023-08-01T08:15:16;2.40;;;1.97;;
75818;SDS011;64453;51.944;9.796;2023-08-01T08:17:45;3.30;;;2.23;;
75818;SDS011;64453;51.944;9.796;2023-08-01T08:20:12;10.50;;;3.43;;
75818;SDS011;64453;51.944;9.796;2023-08-01T08:22:39;3.10;;;2.27;;
75818;SDS011;64453;51.944;9.796;2023-08-01T08:25:06;2.33;;;2.10;;
75818;SDS011;64453;51.944;9.796;2023-08-01T08:27:33;6.80;;;3.23;;
75818;SDS011;64453;51.944;9.796;2023-08-01T08:30:00;4.87;;;2.60;;
75818;SDS011;64453;51.944;9.796;2023-08-01T08:32:29;8.87;;;3.30;;
75818;SDS011;64453;51.944;9.796;2023-08-01T08:34:56;4.77;;;2.73;;
75818;SDS011;64453;51.944;9.796;2023-08-01T08:37:23;4.33;;;3.00;;
75818;SDS011;64453;51.944;9.796;2023-08-01T08:39:51;3.37;;;2.90;;
75818;SDS011;64453;51.944;9.796;2023-08-01T08:42:18;5.43;;;2.97;;
75818;SDS011;64453;51.944;9.796;2023-08-01T08:44:45;6.13;;;3.00;;
75818;SDS011;64453;51.944;9.796;2023-08-01T08:47:16;5.87;;;3.10;;
75818;SDS011;64453;51.944;9.796;2023-08-01T08:49:45;5.47;;;3.37;;
75818;SDS011;64453;51.944;9.796;2023-08-01T08:52:13;4.40;;;2.90;;
75818;SDS011;64453;51.944;9.796;2023-08-01T08:54:41;7.57;;;3.07;;
75818;SDS011;64453;51.944;9.796;2023-08-01T08:57:09;4.77;;;3.17;;
75818;SDS011;64453;51.944;9.796;2023-08-01T08:59:36;4.30;;;3.17;;
75818;SDS011;64453;51.944;9.796;2023-08-01T09:02:04;4.67;;;3.40;;
75818;SDS011;64453;51.944;9.796;2023-08-01T09:04:36;4.93;;;3.70;;
75818;SDS011;64453;51.944;9.796;2023-08-01T09:07:06;3.80;;;2.70;;
75818;SDS011;64453;51.944;9.796;2023-08-01T09:09:36;2.80;;;2.20;;
75818;SDS011;64453;51.944;9.796;2023-08-01T09:12:04;5.37;;;2.23;;
75818;SDS011;64453;51.944;9.796;2023-08-01T09:14:33;2.73;;;2.53;;
75818;SDS011;64453;51.944;9.796;2023-08-01T09:17:06;3.80;;;2.70;;
75818;SDS011;64453;51.944;9.796;2023-08-01T09:19:34;2.63;;;2.47;;
75818;SDS011;64453;51.944;9.796;2023-08-01T09:22:02;2.00;;;1.90;;
75818;SDS011;64453;51.944;9.796;2023-08-01T09:24:38;2.80;;;2.03;;
75818;SDS011;64453;51.944;9.796;2023-08-01T09:27:05;2.40;;;2.20;;
75818;SDS011;64453;51.944;9.796;2023-08-01T09:29:33;3.50;;;2.60;;
75818;SDS011;64453;51.944;9.796;2023-08-01T09:32:10;2.80;;;2.40;;
75818;SDS011;64453;51.944;9.796;2023-08-01T09:34:40;3.00;;;2.50;;
75818;SDS011;64453;51.944;9.796;2023-08-01T09:37:10;1.97;;;1.77;;
75818;SDS011;64453;51.944;9.796;2023-08-01T09:39:37;2.20;;;2.03;;
75818;SDS011;64453;51.944;9.796;2023-08-01T09:42:05;2.50;;;2.30;;
75818;SDS011;64453;51.944;9.796;2023-08-01T09:44:34;3.17;;;1.90;;
75818;SDS011;64453;51.944;9.796;2023-08-01T09:47:03;2.33;;;2.10;;
75818;SDS011;64453;51.944;9.796;2023-08-01T09:49:32;3.07;;;2.17;;
75818;SDS011;64453;51.944;9.796;2023-08-01T09:52:00;3.97;;;2.20;;
75818;SDS011;64453;51.944;9.796;2023-08-01T09:54:29;2.03;;;1.93;;
75818;SDS011;64453;51.944;9.796;2023-08-01T09:56:56;2.70;;;2.30;;
75818;SDS011;64453;51.944;9.796;2023-08-01T09:59:25;2.70;;;2.00;;
75818;SDS011;64453;51.944;9.796;2023-08-01T10:01:53;2.80;;;2.50;;
75818;SDS011;64453;51.944;9.796;2023-08-01T10:04:23;2.00;;;1.90;;
75818;SDS011;64453;51.944;9.796;2023-08-01T10:06:54;4.53;;;2.13;;
75818;SDS011;64453;51.944;9.796;2023-08-01T10:09:26;2.00;;;1.90;;
75818;SDS011;64453;51.944;9.796;2023-08-01T10:11:57;3.40;;;2.10;;
75818;SDS011;64453;51.944;9.796;2023-08-01T10:14:25;3.13;;;2.10;;
75818;SDS011;64453;51.944;9.796;2023-08-01T10:16:52;2.47;;;2.27;;
75818;SDS011;64453;51.944;9.796;2023-08-01T10:19:20;2.20;;;2.10;;
75818;SDS011;64453;51.944;9.796;2023-08-01T10:21:48;2.77;;;2.50;;
75818;SDS011;64453;51.944;9.796;2023-08-01T10:24:16;3.00;;;2.57;;
75818;SDS011;64453;51.944;9.796;2023-08-01T10:26:47;2.63;;;2.23;;
75818;SDS011;64453;51.944;9.796;2023-08-01T10:29:14;2.30;;;2.20;;
75818;SDS011;64453;51.944;9.796;2023-08-01T10:31:50;3.03;;;2.80;;
75818;SDS011;64453;51.944;9.796;2023-08-01T10:34:18;8.73;;;3.50;;
75818;SDS011;64453;51.944;9.796;2023-08-01T10:36:53;4.23;;;2.90;;
75818;SDS011;64453;51.944;9.796;2023-08-01T10:39:21;4.60;;;2.70;;
75818;SDS011;64453;51.944;9.796;2023-08-01T10:41:57;2.70;;;2.50;;
75818;SDS011;64453;51.944;9.796;2023-08-01T10:44:26;4.83;;;2.90;;
75818;SDS011;64453;51.944;9.796;2023-08-01T10:46:56;2.60;;;2.40;;
75818;SDS011;64453;51.944;9.796;2023-08-01T10:49:34;2.60;;;2.50;;
75818;SDS011;64453;51.944;9.796;2023-08-01T10:52:03;3.00;;;2.23;;
75818;SDS011;64453;51.944;9.796;2023-08-01T10:54:42;3.07;;;2.57;;
75818;SDS011;64453;51.944;9.796;2023-08-01T10:57:11;3.50;;;2.70;;
75818;SDS011;64453;51.944;9.796;2023-08-01T10:59:43;2.63;;;2.43;;
75818;SDS011;64453;51.944;9.796;2023-08-01T11:02:11;3.10;;;2.90;;
75818;SDS011;64453;51.944;9.796;2023-08-01T11:04:38;3.40;;;3.00;;
75818;SDS011;64453;51.944;9.796;2023-08-01T11:07:05;3.90;;;3.60;;
75818;SDS011;64453;51.944;9.796;2023-08-01T11:09:32;3.57;;;3.00;;
75818;SDS011;64453;51.944;9.796;2023-08-01T11:11:59;3.30;;;3.10;;
75818;SDS011;64453;51.944;9.796;2023-08-01T11:14:28;4.73;;;3.93;;
75818;SDS011;64453;51.944;9.796;2023-08-01T11:16:56;4.00;;;3.60;;
75818;SDS011;64453;51.944;9.796;2023-08-01T11:19:26;4.40;;;4.00;;
75818;SDS011;64453;51.944;9.796;2023-08-01T11:21:55;4.10;;;3.20;;
75818;SDS011;64453;51.944;9.796;2023-08-01T11:24:25;3.40;;;3.00;;
75818;SDS011;64453;51.944;9.796;2023-08-01T11:26:53;2.77;;;2.57;;
75818;SDS011;64453;51.944;9.796;2023-08-01T11:29:20;4.27;;;3.20;;
75818;SDS011;64453;51.944;9.796;2023-08-01T11:31:56;3.63;;;3.33;;
75818;SDS011;64453;51.944;9.796;2023-08-01T11:34:26;3.77;;;3.43;;
75818;SDS011;64453;51.944;9.796;2023-08-01T11:36:53;4.03;;;3.73;;
75818;SDS011;64453;51.944;9.796;2023-08-01T11:39:20;3.73;;;3.43;;
75818;SDS011;64453;51.944;9.796;2023-08-01T11:41:48;3.77;;;3.47;;
75818;SDS011;64453;51.944;9.796;2023-08-01T11:44:15;4.40;;;4.00;;
75818;SDS011;64453;51.944;9.796;2023-08-01T11:46:42;3.63;;;3.40;;
75818;SDS011;64453;51.944;9.796;2023-08-01T11:49:13;7.50;;;4.77;;
75818;SDS011;64453;51.944;9.796;2023-08-01T11:51:41;7.80;;;4.33;;
75818;SDS011;64453;51.944;9.796;2023-08-01T11:54:10;4.73;;;4.27;;
75818;SDS011;64453;51.944;9.796;2023-08-01T11:56:38;7.10;;;4.23;;
75818;SDS011;64453;51.944;9.796;2023-08-01T11:59:09;4.90;;;3.57;;
75818;SDS011;64453;51.944;9.796;2023-08-01T12:01:37;3.90;;;3.60;;
75818;SDS011;64453;51.944;9.796;2023-08-01T12:04:05;4.40;;;4.00;;
75818;SDS011;64453;51.944;9.796;2023-08-01T12:06:34;4.17;;;3.80;;
75818;SDS011;64453;51.944;9.796;2023-08-01T12:09:06;4.13;;;3.80;;
75818;SDS011;64453;51.944;9.796;2023-08-01T12:11:35;5.57;;;4.40;;
75818;SDS011;64453;51.944;9.796;2023-08-01T12:14:03;6.80;;;4.40;;
75818;SDS011;64453;51.944;9.796;2023-08-01T12:16:34;5.03;;;3.97;;
75818;SDS011;64453;51.944;9.796;2023-08-01T12:19:02;5.20;;;3.90;;
75818;SDS011;64453;51.944;9.796;2023-08-01T12:21:30;5.40;;;4.97;;
75818;SDS011;64453;51.944;9.796;2023-08-01T12:24:00;4.20;;;3.80;;
75818;SDS011;64453;51.944;9.796;2023-08-01T12:26:28;4.30;;;3.93;;
75818;SDS011;64453;51.944;9.796;2023-08-01T12:28:56;5.73;;;4.27;;
75818;SDS011;64453;51.944;9.796;2023-08-01T12:31:23;5.37;;;3.43;;
75818;SDS011;64453;51.944;9.796;2023-08-01T12:33:50;5.27;;;3.70;;
75818;SDS011;64453;51.944;9.796;2023-08-01T12:36:18;3.97;;;3.50;;
75818;SDS011;64453;51.944;9.796;2023-08-01T12:38:46;7.50;;;3.97;;
75818;SDS011;64453;51.944;9.796;2023-08-01T12:41:15;5.30;;;4.53;;
75818;SDS011;64453;51.944;9.796;2023-08-01T12:43:42;5.77;;;3.97;;
75818;SDS011;64453;51.944;9.796;2023-08-01T12:46:09;4.93;;;3.80;;
75818;SDS011;64453;51.944;9.796;2023-08-01T12:48:36;4.57;;;3.70;;
75818;SDS011;64453;51.944;9.796;2023-08-01T12:51:03;3.80;;;3.40;;
75818;SDS011;64453;51.944;9.796;2023-08-01T12:53:31;4.63;;;3.50;;
75818;SDS011;64453;51.944;9.796;2023-08-01T12:55:57;4.43;;;4.03;;
75818;SDS011;64453;51.944;9.796;2023-08-01T12:58:26;4.20;;;3.80;;
75818;SDS011;64453;51.944;9.796;2023-08-01T13:00:54;3.70;;;3.40;;
75818;SDS011;64453;51.944;9.796;2023-08-01T13:03:22;3.37;;;3.17;;
75818;SDS011;64453;51.944;9.796;2023-08-01T13:05:49;4.73;;;3.50;;
75818;SDS011;64453;51.944;9.796;2023-08-01T13:08:18;4.10;;;2.37;;
75818;SDS011;64453;51.944;9.796;2023-08-01T13:10:45;1.80;;;1.70;;
75818;SDS011;64453;51.944;9.796;2023-08-01T13:13:14;1.70;;;1.60;;
75818;SDS011;64453;51.944;9.796;2023-08-01T13:15:43;2.90;;;2.30;;
75818;SDS011;64453;51.944;9.796;2023-08-01T13:18:10;3.00;;;2.23;;
75818;SDS011;64453;51.944;9.796;2023-08-01T13:20:37;1.93;;;1.83;;
75818;SDS011;64453;51.944;9.796;2023-08-01T13:23:04;2.23;;;1.90;;
75818;SDS011;64453;51.944;9.796;2023-08-01T13:25:32;1.80;;;1.70;;
75818;SDS011;64453;51.944;9.796;2023-08-01T13:28:00;3.90;;;2.20;;
75818;SDS011;64453;51.944;9.796;2023-08-01T13:30:28;3.60;;;2.53;;
75818;SDS011;64453;51.944;9.796;2023-08-01T13:32:56;2.67;;;2.47;;
75818;SDS011;64453;51.944;9.796;2023-08-01T13:35:23;3.93;;;2.77;;
75818;SDS011;64453;51.944;9.796;2023-08-01T13:37:50;4.70;;;2.40;;
75818;SDS011;64453;51.944;9.796;2023-08-01T13:40:17;3.70;;;2.30;;
75818;SDS011;64453;51.944;9.796;2023-08-01T13:42:44;3.33;;;3.13;;
75818;SDS011;64453;51.944;9.796;2023-08-01T13:45:11;2.80;;;2.60;;
75818;SDS011;64453;51.944;9.796;2023-08-01T13:47:38;3.13;;;2.80;;
75818;SDS011;64453;51.944;9.796;2023-08-01T13:50:08;3.10;;;2.90;;
75818;SDS011;64453;51.944;9.796;2023-08-01T13:52:36;3.50;;;2.60;;
75818;SDS011;64453;51.944;9.796;2023-08-01T13:55:04;4.13;;;2.27;;
75818;SDS011;64453;51.944;9.796;2023-08-01T13:57:32;2.57;;;2.37;;
75818;SDS011;64453;51.944;9.796;2023-08-01T13:59:59;2.50;;;2.10;;
75818;SDS011;64453;51.944;9.796;2023-08-01T14:02:26;2.70;;;2.43;;
75818;SDS011;64453;51.944;9.796;2023-08-01T14:04:55;2.70;;;2.50;;
75818;SDS011;64453;51.944;9.796;2023-08-01T14:07:23;2.67;;;2.47;;
75818;SDS011;64453;51.944;9.796;2023-08-01T14:09:50;2.10;;;2.00;;
75818;SDS011;64453;51.944;9.796;2023-08-01T14:12:18;3.27;;;2.57;;
75818;SDS011;64453;51.944;9.796;2023-08-01T14:14:45;3.10;;;1.97;;
75818;SDS011;64453;51.944;9.796;2023-08-01T14:17:12;2.13;;;2.00;;
75818;SDS011;64453;51.944;9.796;2023-08-01T14:19:39;2.70;;;2.50;;
75818;SDS011;64453;51.944;9.796;2023-08-01T14:22:06;4.70;;;2.60;;
75818;SDS011;64453;51.944;9.796;2023-08-01T14:24:34;5.97;;;3.23;;
75818;SDS011;64453;51.944;9.796;2023-08-01T14:27:01;3.33;;;2.53;;
75818;SDS011;64453;51.944;9.796;2023-08-01T14:29:29;2.80;;;2.60;;
75818;SDS011;64453;51.944;9.796;2023-08-01T14:31:56;4.73;;;2.90;;
75818;SDS011;64453;51.944;9.796;2023-08-01T14:34:23;3.60;;;2.73;;
75818;SDS011;64453;51.944;9.796;2023-08-01T14:36:50;2.23;;;2.10;;
75818;SDS011;64453;51.944;9.796;2023-08-01T14:39:17;3.57;;;1.83;;
75818;SDS011;64453;51.944;9.796;2023-08-01T14:41:45;2.20;;;1.80;;
75818;SDS011;64453;51.944;9.796;2023-08-01T14:44:12;3.63;;;1.80;;
75818;SDS011;64453;51.944;9.796;2023-08-01T14:46:39;1.77;;;1.67;;
75818;SDS011;64453;51.944;9.796;2023-08-01T14:49:06;2.10;;;1.90;;
75818;SDS011;64453;51.944;9.796;2023-08-01T14:51:33;1.77;;;1.30;;